createdAt,value
2018-03-14T00:00:44.358Z,87.95
2018-03-14T00:01:49.538Z,87.95
2018-03-14T00:02:54.758Z,87.83
2018-03-14T00:03:59.768Z,87.78
2018-03-14T00:05:04.700Z,87.91
2018-03-14T00:06:09.807Z,87.93
2018-03-14T00:07:15.396Z,87.80
2018-03-14T00:08:20.482Z,87.61
2018-03-14T00:09:25.675Z,87.68
2018-03-14T00:10:30.763Z,87.64
2018-03-14T00:11:35.911Z,87.62
2018-03-14T00:12:41.346Z,87.73
2018-03-14T00:13:46.499Z,87.50
2018-03-14T00:14:51.763Z,87.52
2018-03-14T00:15:57.170Z,87.48
2018-03-14T00:17:02.373Z,87.64
2018-03-14T00:18:07.476Z,87.76
2018-03-14T00:19:13.477Z,87.58
2018-03-14T00:20:19.055Z,87.66
2018-03-14T00:21:24.209Z,87.68
2018-03-14T00:22:34.133Z,87.65
2018-03-14T00:23:39.065Z,87.61
2018-03-14T00:24:44.158Z,87.78
2018-03-14T00:25:49.652Z,87.95
2018-03-14T00:26:54.878Z,87.88
2018-03-14T00:28:00.145Z,87.83
2018-03-14T00:29:05.112Z,87.82
2018-03-14T00:30:13.353Z,87.83
2018-03-14T00:31:18.675Z,87.83
2018-03-14T00:32:24.906Z,87.98
2018-03-14T00:33:30.194Z,88.04
2018-03-14T00:34:35.598Z,88.06
2018-03-14T00:35:40.793Z,87.93
2018-03-14T00:36:46.180Z,87.88
2018-03-14T00:37:51.376Z,87.85
2018-03-14T00:38:57.299Z,87.95
2018-03-14T00:40:02.983Z,87.79
2018-03-14T00:41:08.869Z,87.73
2018-03-14T00:42:15.804Z,87.63
2018-03-14T00:43:20.872Z,87.62
2018-03-14T00:44:26.971Z,87.64
2018-03-14T00:45:32.767Z,87.54
2018-03-14T00:46:39.231Z,87.49
2018-03-14T00:47:44.589Z,87.54
2018-03-14T00:48:49.888Z,87.56
2018-03-14T00:49:55.035Z,87.53
2018-03-14T00:51:00.869Z,87.37
2018-03-14T00:52:06.183Z,87.47
2018-03-14T00:53:11.887Z,87.57
2018-03-14T00:54:17.852Z,87.58
2018-03-14T00:55:23.896Z,87.75
2018-03-14T00:56:30.206Z,87.70
2018-03-14T00:57:36.972Z,87.68
2018-03-14T00:58:43.161Z,87.52
2018-03-14T00:59:49.007Z,87.60
2018-03-14T01:00:55.665Z,87.63
2018-03-14T01:02:01.552Z,87.61
2018-03-14T01:03:07.272Z,87.67
2018-03-14T01:04:14.265Z,87.72
2018-03-14T01:05:20.485Z,87.91
2018-03-14T01:06:25.755Z,87.92
2018-03-14T01:07:31.100Z,87.88
2018-03-14T01:08:36.394Z,87.90
2018-03-14T01:09:41.895Z,87.88
2018-03-14T01:10:47.142Z,88.04
2018-03-14T01:11:52.346Z,88.17
2018-03-14T01:12:57.489Z,88.28
2018-03-14T01:14:02.811Z,88.16
2018-03-14T01:15:09.426Z,87.98
2018-03-14T01:16:15.192Z,88.12
2018-03-14T01:17:21.725Z,88.04
2018-03-14T01:18:26.965Z,88.09
2018-03-14T01:19:32.111Z,88.10
2018-03-14T01:20:37.404Z,88.02
2018-03-14T01:21:42.870Z,88.23
2018-03-14T01:22:48.086Z,88.28
2018-03-14T01:23:53.242Z,88.37
2018-03-14T01:24:58.319Z,88.34
2018-03-14T01:26:03.661Z,88.50
2018-03-14T01:27:09.061Z,88.53
2018-03-14T01:28:14.618Z,88.52
2018-03-14T01:29:19.836Z,88.46
2018-03-14T01:30:25.398Z,88.51
2018-03-14T01:31:30.681Z,88.45
2018-03-14T01:32:36.060Z,88.42
2018-03-14T01:33:41.372Z,88.37
2018-03-14T01:34:46.724Z,88.43
2018-03-14T01:35:52.148Z,88.53
2018-03-14T01:36:57.795Z,88.46
2018-03-14T01:38:03.686Z,88.51
2018-03-14T01:39:09.454Z,88.41
2018-03-14T01:40:15.329Z,88.24
2018-03-14T01:41:21.205Z,88.35
2018-03-14T01:42:26.374Z,88.60
2018-03-14T01:43:31.820Z,88.41
2018-03-14T01:44:37.047Z,88.25
2018-03-14T01:45:44.037Z,88.17
2018-03-14T01:46:49.240Z,88.22
2018-03-14T01:47:54.837Z,88.30
2018-03-14T01:48:59.917Z,88.21
2018-03-14T01:50:05.012Z,88.14
2018-03-14T01:51:10.130Z,88.12
2018-03-14T01:52:15.845Z,87.97
2018-03-14T01:53:29.597Z,87.97
2018-03-14T01:54:34.751Z,87.86
2018-03-14T01:55:39.980Z,87.95
2018-03-14T01:56:45.170Z,87.96
2018-03-14T01:57:50.450Z,88.01
2018-03-14T01:58:55.572Z,88.01
2018-03-14T02:00:00.514Z,88.36
2018-03-14T02:01:05.604Z,88.20
2018-03-14T02:02:10.880Z,88.15
2018-03-14T02:03:16.201Z,88.20
2018-03-14T02:04:21.516Z,88.24
2018-03-14T02:05:26.720Z,88.44
2018-03-14T02:06:32.563Z,88.45
2018-03-14T02:07:37.858Z,88.53
2018-03-14T02:08:43.204Z,88.59
2018-03-14T02:09:48.361Z,88.31
2018-03-14T02:10:53.246Z,88.40
2018-03-14T02:11:58.155Z,88.26
2018-03-14T02:13:03.215Z,88.22
2018-03-14T02:14:08.435Z,88.20
2018-03-14T02:15:15.935Z,88.25
2018-03-14T02:16:22.084Z,88.60
2018-03-14T02:17:27.110Z,88.50
2018-03-14T02:18:32.466Z,88.50
2018-03-14T02:19:37.582Z,88.48
2018-03-14T02:20:42.459Z,88.28
2018-03-14T02:21:47.147Z,88.21
2018-03-14T02:22:52.149Z,88.21
2018-03-14T02:23:57.263Z,88.16
2018-03-14T02:25:02.524Z,88.02
2018-03-14T02:26:07.569Z,88.22
2018-03-14T02:27:13.175Z,88.09
2018-03-14T02:28:19.480Z,88.05
2018-03-14T02:29:25.140Z,87.88
2018-03-14T02:30:32.402Z,87.81
2018-03-14T02:31:37.655Z,87.79
2018-03-14T02:32:43.784Z,87.59
2018-03-14T02:33:48.918Z,87.59
2018-03-14T02:34:53.772Z,87.58
2018-03-14T02:35:58.783Z,87.57
2018-03-14T02:37:04.144Z,87.56
2018-03-14T02:38:08.938Z,87.76
2018-03-14T02:39:13.857Z,87.74
2018-03-14T02:40:19.005Z,87.58
2018-03-14T02:41:23.917Z,87.24
2018-03-14T02:42:29.157Z,86.93
2018-03-14T02:43:34.421Z,86.39
2018-03-14T02:44:39.025Z,86.16
2018-03-14T02:45:44.087Z,86.00
2018-03-14T02:46:48.903Z,85.33
2018-03-14T02:47:53.714Z,85.00
2018-03-14T02:48:58.903Z,84.21
2018-03-14T02:50:03.933Z,83.48
2018-03-14T02:51:08.746Z,83.24
2018-03-14T02:52:13.783Z,82.71
2018-03-14T02:53:18.680Z,82.59
2018-03-14T02:54:23.345Z,82.68
2018-03-14T02:55:28.914Z,81.64
2018-03-14T02:56:34.180Z,81.72
2018-03-14T02:57:38.748Z,81.70
2018-03-14T02:58:43.372Z,81.74
2018-03-14T02:59:47.933Z,81.56
2018-03-14T03:00:53.081Z,81.36
2018-03-14T03:01:57.555Z,81.06
2018-03-14T03:03:02.309Z,81.17
2018-03-14T03:04:06.946Z,81.34
2018-03-14T03:05:12.943Z,81.04
2018-03-14T03:06:19.584Z,81.00
2018-03-14T03:07:24.838Z,81.01
2018-03-14T03:08:30.556Z,81.35
2018-03-14T03:09:37.489Z,81.42
2018-03-14T03:10:42.586Z,81.37
2018-03-14T03:11:47.168Z,81.60
2018-03-14T03:12:51.878Z,81.72
2018-03-14T03:13:56.819Z,82.02
2018-03-14T03:15:03.534Z,81.62
2018-03-14T03:16:08.694Z,82.09
2018-03-14T03:17:15.351Z,82.02
2018-03-14T03:18:19.993Z,82.38
2018-03-14T03:19:24.448Z,82.32
2018-03-14T03:20:29.596Z,82.49
2018-03-14T03:21:34.474Z,82.31
2018-03-14T03:22:39.104Z,82.26
2018-03-14T03:23:43.817Z,82.18
2018-03-14T03:24:48.571Z,82.37
2018-03-14T03:25:53.134Z,82.54
2018-03-14T03:26:58.052Z,82.66
2018-03-14T03:28:02.788Z,82.58
2018-03-14T03:29:07.455Z,82.60
2018-03-14T03:30:15.656Z,82.45
2018-03-14T03:31:20.348Z,82.18
2018-03-14T03:32:24.947Z,81.88
2018-03-14T03:33:29.709Z,81.62
2018-03-14T03:34:34.394Z,81.72
2018-03-14T03:35:39.179Z,81.69
2018-03-14T03:36:43.713Z,81.53
2018-03-14T03:37:48.324Z,81.00
2018-03-14T03:38:53.369Z,80.76
2018-03-14T03:39:58.308Z,80.58
2018-03-14T03:41:03.382Z,79.60
2018-03-14T03:42:08.048Z,79.50
2018-03-14T03:43:12.389Z,78.85
2018-03-14T03:44:16.802Z,78.71
2018-03-14T03:45:23.050Z,78.59
2018-03-14T03:46:27.472Z,78.54
2018-03-14T03:47:31.928Z,78.53
2018-03-14T03:48:36.462Z,77.47
2018-03-14T03:49:41.190Z,77.49
2018-03-14T03:50:45.758Z,77.91
2018-03-14T03:51:50.172Z,78.12
2018-03-14T03:52:55.027Z,77.62
2018-03-14T03:53:59.842Z,77.34
2018-03-14T03:55:04.600Z,77.05
2018-03-14T03:56:09.282Z,76.95
2018-03-14T03:57:14.160Z,76.60
2018-03-14T03:58:19.992Z,77.25
2018-03-14T03:59:26.281Z,76.95
2018-03-14T04:00:31.261Z,76.80
2018-03-14T04:01:35.868Z,77.04
2018-03-14T04:02:40.580Z,77.12
2018-03-14T04:03:45.096Z,77.15
2018-03-14T04:04:50.427Z,77.18
2018-03-14T04:05:55.599Z,77.35
2018-03-14T04:07:00.141Z,77.49
2018-03-14T04:08:04.822Z,77.44
2018-03-14T04:09:10.669Z,77.54
2018-03-14T04:10:15.522Z,77.83
2018-03-14T04:11:20.918Z,77.92
2018-03-14T04:12:25.933Z,77.89
2018-03-14T04:13:31.843Z,77.57
2018-03-14T04:14:37.020Z,77.98
2018-03-14T04:15:41.872Z,77.98
2018-03-14T04:16:47.245Z,77.86
2018-03-14T04:17:52.079Z,77.89
2018-03-14T04:18:56.638Z,78.00
2018-03-14T04:20:02.049Z,78.22
2018-03-14T04:21:06.966Z,78.15
2018-03-14T04:22:11.713Z,78.09
2018-03-14T04:23:17.385Z,78.27
2018-03-14T04:24:22.468Z,78.17
2018-03-14T04:25:27.463Z,78.57
2018-03-14T04:26:32.257Z,78.43
2018-03-14T04:27:36.873Z,78.29
2018-03-14T04:28:41.541Z,77.95
2018-03-14T04:29:46.077Z,78.18
2018-03-14T04:30:51.562Z,78.25
2018-03-14T04:31:56.107Z,78.32
2018-03-14T04:33:00.499Z,78.21
2018-03-14T04:34:05.294Z,78.38
2018-03-14T04:35:09.812Z,78.55
2018-03-14T04:36:14.294Z,78.87
2018-03-14T04:37:19.057Z,79.06
2018-03-14T04:38:24.015Z,79.23
2018-03-14T04:39:28.869Z,79.37
2018-03-14T04:40:33.559Z,78.83
2018-03-14T04:41:39.029Z,78.61
2018-03-14T04:42:44.755Z,78.54
2018-03-14T04:43:49.918Z,78.60
2018-03-14T04:44:54.843Z,78.50
2018-03-14T04:46:00.012Z,78.62
2018-03-14T04:47:06.045Z,78.65
2018-03-14T04:48:10.927Z,78.57
2018-03-14T04:49:15.627Z,78.48
2018-03-14T04:50:22.492Z,78.49
2018-03-14T04:51:27.636Z,78.56
2018-03-14T04:52:32.474Z,78.71
2018-03-14T04:53:38.126Z,79.10
2018-03-14T04:54:43.140Z,79.37
2018-03-14T04:55:47.722Z,79.36
2018-03-14T04:56:52.257Z,78.89
2018-03-14T04:57:56.699Z,78.70
2018-03-14T04:59:01.310Z,78.65
2018-03-14T05:00:09.174Z,78.86
2018-03-14T05:01:14.313Z,78.84
2018-03-14T05:02:19.228Z,78.72
2018-03-14T05:03:23.948Z,78.92
2018-03-14T05:04:28.796Z,79.22
2018-03-14T05:05:33.322Z,79.03
2018-03-14T05:06:38.275Z,79.03
2018-03-14T05:07:43.564Z,79.35
2018-03-14T05:08:48.793Z,79.18
2018-03-14T05:09:53.432Z,79.14
2018-03-14T05:10:57.969Z,79.35
2018-03-14T05:12:02.956Z,79.16
2018-03-14T05:13:07.757Z,79.04
2018-03-14T05:14:13.032Z,79.18
2018-03-14T05:15:18.344Z,79.57
2018-03-14T05:16:23.108Z,79.57
2018-03-14T05:17:28.811Z,79.62
2018-03-14T05:18:33.480Z,79.76
2018-03-14T05:19:38.193Z,79.76
2018-03-14T05:20:43.430Z,80.00
2018-03-14T05:21:48.333Z,79.92
2018-03-14T05:22:53.047Z,79.92
2018-03-14T05:23:57.883Z,79.98
2018-03-14T05:25:02.634Z,80.03
2018-03-14T05:26:07.903Z,80.04
2018-03-14T05:27:12.995Z,80.10
2018-03-14T05:28:17.732Z,80.24
2018-03-14T05:29:23.202Z,80.37
2018-03-14T05:30:28.340Z,80.54
2018-03-14T05:32:43.391Z,80.68
2018-03-14T05:33:48.358Z,80.83
2018-03-14T05:34:53.438Z,80.61
2018-03-14T05:35:58.273Z,80.57
2018-03-14T05:37:02.846Z,80.26
2018-03-14T05:38:07.877Z,80.39
2018-03-14T05:39:13.223Z,80.56
2018-03-14T05:40:18.325Z,80.69
2018-03-14T05:41:30.467Z,80.88
2018-03-14T05:42:35.410Z,81.08
2018-03-14T05:43:40.445Z,81.29
2018-03-14T05:44:45.640Z,81.26
2018-03-14T05:45:51.036Z,81.27
2018-03-14T05:46:56.158Z,80.97
2018-03-14T05:48:01.214Z,80.78
2018-03-14T05:49:06.336Z,80.65
2018-03-14T05:50:11.405Z,80.70
2018-03-14T05:51:17.458Z,80.82
2018-03-14T05:52:23.716Z,80.73
2018-03-14T05:53:29.407Z,80.68
2018-03-14T05:54:34.660Z,80.83
2018-03-14T05:55:39.945Z,81.02
2018-03-14T05:56:45.131Z,81.06
2018-03-14T05:57:50.928Z,80.84
2018-03-14T05:58:56.451Z,80.72
2018-03-14T06:00:01.882Z,80.60
2018-03-14T06:01:07.684Z,80.84
2018-03-14T06:02:13.327Z,80.85
2018-03-14T06:03:19.184Z,81.10
2018-03-14T06:04:24.435Z,81.26
2018-03-14T06:05:30.816Z,81.31
2018-03-14T06:06:35.807Z,81.04
2018-03-14T06:07:41.305Z,81.07
2018-03-14T06:08:46.594Z,80.89
2018-03-14T06:09:52.171Z,80.75
2018-03-14T06:10:57.448Z,80.57
2018-03-14T06:12:02.896Z,80.44
2018-03-14T06:13:08.095Z,80.17
2018-03-14T06:14:13.293Z,79.85
2018-03-14T06:15:19.212Z,79.47
2018-03-14T06:16:24.310Z,79.29
2018-03-14T06:17:29.563Z,79.22
2018-03-14T06:18:34.634Z,79.11
2018-03-14T06:19:39.834Z,79.25
2018-03-14T06:20:45.305Z,79.37
2018-03-14T06:21:50.470Z,79.42
2018-03-14T06:22:56.048Z,79.49
2018-03-14T06:24:01.252Z,78.94
2018-03-14T06:25:06.555Z,78.57
2018-03-14T06:26:11.867Z,78.40
2018-03-14T06:27:18.055Z,78.45
2018-03-14T06:28:23.976Z,78.24
2018-03-14T06:29:29.067Z,78.38
2018-03-14T06:30:34.573Z,78.48
2018-03-14T06:31:40.002Z,78.27
2018-03-14T06:32:44.833Z,78.24
2018-03-14T06:33:49.950Z,78.50
2018-03-14T06:34:55.018Z,78.76
2018-03-14T06:36:00.649Z,78.90
2018-03-14T06:37:05.987Z,78.40
2018-03-14T06:38:11.292Z,78.47
2018-03-14T06:39:17.771Z,78.42
2018-03-14T06:40:22.900Z,78.32
2018-03-14T06:41:28.157Z,78.30
2018-03-14T06:42:33.329Z,78.61
2018-03-14T06:43:38.406Z,78.16
2018-03-14T06:44:44.093Z,77.94
2018-03-14T06:45:49.348Z,77.79
2018-03-14T06:46:54.333Z,77.77
2018-03-14T06:47:59.406Z,77.92
2018-03-14T06:49:04.410Z,77.98
2018-03-14T06:50:09.654Z,77.54
2018-03-14T06:51:15.155Z,77.19
2018-03-14T06:52:20.348Z,77.14
2018-03-14T06:53:25.590Z,76.51
2018-03-14T06:54:30.785Z,76.56
2018-03-14T06:55:36.823Z,76.81
2018-03-14T06:56:42.600Z,76.96
2018-03-14T06:57:47.895Z,77.02
2018-03-14T07:01:08.830Z,76.71
2018-03-14T07:02:50.367Z,76.71
2018-03-14T07:04:05.211Z,76.69
2018-03-14T07:06:18.006Z,75.97
2018-03-14T07:08:27.427Z,75.36
2018-03-14T07:09:33.143Z,75.92
2018-03-14T07:10:38.433Z,75.50
2018-03-14T07:11:43.355Z,75.47
2018-03-14T07:12:48.680Z,75.51
2018-03-14T07:13:53.862Z,75.28
2018-03-14T07:14:58.951Z,74.96
2018-03-14T07:16:04.557Z,74.82
2018-03-14T07:17:10.295Z,74.69
2018-03-14T07:18:17.288Z,74.39
2018-03-14T07:19:22.388Z,74.17
2018-03-14T07:20:27.696Z,73.96
2018-03-14T07:21:32.976Z,73.78
2018-03-14T07:22:38.138Z,73.24
2018-03-14T07:23:43.865Z,73.50
2018-03-14T07:24:48.910Z,73.89
2018-03-14T07:25:54.114Z,73.47
2018-03-14T07:26:59.451Z,73.59
2018-03-14T07:28:04.803Z,73.63
2018-03-14T07:29:10.095Z,73.59
2018-03-14T07:30:17.500Z,74.39
2018-03-14T07:31:23.379Z,73.70
2018-03-14T07:32:29.154Z,73.84
2018-03-14T07:33:34.085Z,74.11
2018-03-14T07:34:39.871Z,73.84
2018-03-14T07:35:45.044Z,73.47
2018-03-14T07:36:50.115Z,73.82
2018-03-14T07:37:55.254Z,73.88
2018-03-14T07:39:00.677Z,73.59
2018-03-14T07:40:06.002Z,73.75
2018-03-14T07:41:11.246Z,73.84
2018-03-14T07:42:16.720Z,72.90
2018-03-14T07:43:22.476Z,72.73
2018-03-14T07:44:27.640Z,73.33
2018-03-14T07:45:34.018Z,73.16
2018-03-14T07:46:39.354Z,72.91
2018-03-14T07:47:44.474Z,73.18
2018-03-14T07:48:49.748Z,72.57
2018-03-14T07:49:55.371Z,72.42
2018-03-14T07:51:01.705Z,72.36
2018-03-14T07:52:07.014Z,72.28
2018-03-14T07:53:12.028Z,72.63
2018-03-14T07:54:17.275Z,72.46
2018-03-14T07:55:22.387Z,72.03
2018-03-14T07:56:27.836Z,71.09
2018-03-14T07:57:32.948Z,70.82
2018-03-14T07:58:38.045Z,70.58
2018-03-14T07:59:43.265Z,70.98
2018-03-14T08:00:48.488Z,70.29
2018-03-14T08:01:53.841Z,70.27
2018-03-14T08:02:59.343Z,70.80
2018-03-14T08:04:04.490Z,71.28
2018-03-14T08:05:09.611Z,71.52
2018-03-14T08:06:14.753Z,71.46
2018-03-14T08:07:20.352Z,71.27
2018-03-14T08:08:25.547Z,71.24
2018-03-14T08:09:31.467Z,70.87
2018-03-14T08:10:36.370Z,70.30
2018-03-14T08:11:41.465Z,69.77
2018-03-14T08:12:47.872Z,69.42
2018-03-14T08:13:52.987Z,69.06
2018-03-14T08:14:58.313Z,69.32
2018-03-14T08:16:03.961Z,69.25
2018-03-14T08:17:09.276Z,69.47
2018-03-14T08:18:14.332Z,69.67
2018-03-14T08:19:20.818Z,70.42
2018-03-14T08:20:25.714Z,70.43
2018-03-14T08:21:31.739Z,69.64
2018-03-14T08:22:36.752Z,69.05
2018-03-14T08:23:41.748Z,68.19
2018-03-14T08:24:46.686Z,67.78
2018-03-14T08:25:51.857Z,68.63
2018-03-14T08:26:56.972Z,68.88
2018-03-14T08:28:02.210Z,69.27
2018-03-14T08:29:07.376Z,68.97
2018-03-14T08:30:15.905Z,68.42
2018-03-14T08:31:20.814Z,69.01
2018-03-14T08:32:25.975Z,68.54
2018-03-14T08:33:31.496Z,68.64
2018-03-14T08:34:36.389Z,68.49
2018-03-14T08:35:41.296Z,67.71
2018-03-14T08:36:46.197Z,67.38
2018-03-14T08:37:51.255Z,67.77
2018-03-14T08:38:56.426Z,67.49
2018-03-14T08:40:01.703Z,67.12
2018-03-14T08:41:06.868Z,67.98
2018-03-14T08:42:12.023Z,67.73
2018-03-14T08:43:17.108Z,68.20
2018-03-14T08:44:23.918Z,67.08
2018-03-14T08:45:29.790Z,66.88
2018-03-14T08:46:35.183Z,66.37
2018-03-14T08:47:40.165Z,66.22
2018-03-14T08:48:45.995Z,66.78
2018-03-14T08:49:50.830Z,66.06
2018-03-14T08:50:55.892Z,65.98
2018-03-14T08:52:00.674Z,66.78
2018-03-14T08:53:06.033Z,66.80
2018-03-14T08:54:11.063Z,66.65
2018-03-14T08:55:16.235Z,65.30
2018-03-14T08:56:21.995Z,65.79
2018-03-14T08:57:27.138Z,66.06
2018-03-14T08:58:32.190Z,66.45
2018-03-14T08:59:37.696Z,65.28
2018-03-14T09:00:43.381Z,64.53
2018-03-14T09:01:48.472Z,63.57
2018-03-14T09:02:53.482Z,64.61
2018-03-14T09:03:58.616Z,64.05
2018-03-14T09:05:03.578Z,63.73
2018-03-14T09:06:08.960Z,63.13
2018-03-14T09:07:14.034Z,63.80
2018-03-14T09:08:20.112Z,64.27
2018-03-14T09:09:25.546Z,64.61
2018-03-14T09:10:30.558Z,63.15
2018-03-14T09:11:35.627Z,64.63
2018-03-14T09:12:40.446Z,63.22
2018-03-14T09:13:45.259Z,62.57
2018-03-14T09:14:50.139Z,62.48
2018-03-14T09:15:55.698Z,58.48
2018-03-14T09:17:00.821Z,59.60
2018-03-14T09:18:05.686Z,59.65
2018-03-14T09:19:10.631Z,59.52
2018-03-14T09:20:15.833Z,58.76
2018-03-14T09:21:21.534Z,59.37
2018-03-14T09:22:26.456Z,59.83
2018-03-14T09:23:32.551Z,59.91
2018-03-14T09:24:37.678Z,59.17
2018-03-14T09:25:42.519Z,59.89
2018-03-14T09:26:47.739Z,59.98
2018-03-14T09:27:52.740Z,60.41
2018-03-14T09:28:58.440Z,60.49
2018-03-14T09:30:05.279Z,60.30
2018-03-14T09:31:10.541Z,59.42
2018-03-14T09:32:15.823Z,59.21
2018-03-14T09:33:20.864Z,62.46
2018-03-14T09:34:26.155Z,60.79
2018-03-14T09:35:32.039Z,59.36
2018-03-14T09:36:37.059Z,60.32
2018-03-14T09:37:42.009Z,60.88
2018-03-14T09:38:46.988Z,59.86
2018-03-14T09:39:51.831Z,58.94
2018-03-14T09:40:56.739Z,59.03
2018-03-14T09:42:02.036Z,59.00
2018-03-14T09:43:07.396Z,58.11
2018-03-14T09:44:12.513Z,56.69
2018-03-14T09:45:17.878Z,57.19
2018-03-14T09:46:23.833Z,55.96
2018-03-14T09:47:28.869Z,56.14
2018-03-14T09:48:34.182Z,56.49
2018-03-14T09:49:39.054Z,56.13
2018-03-14T09:50:44.277Z,56.47
2018-03-14T09:51:49.206Z,54.23
2018-03-14T09:52:54.183Z,54.29
2018-03-14T09:53:59.156Z,54.01
2018-03-14T09:55:04.292Z,53.06
2018-03-14T09:56:09.530Z,52.81
2018-03-14T09:57:14.834Z,51.14
2018-03-14T09:58:19.748Z,52.18
2018-03-14T09:59:25.941Z,53.39
2018-03-14T10:00:32.493Z,53.15
2018-03-14T10:01:38.050Z,53.10
2018-03-14T10:02:43.052Z,54.42
2018-03-14T10:03:48.082Z,54.10
2018-03-14T10:04:54.081Z,55.31
2018-03-14T10:05:59.144Z,53.52
2018-03-14T10:07:04.577Z,53.72
2018-03-14T10:08:09.463Z,54.29
2018-03-14T10:09:14.821Z,53.10
2018-03-14T10:10:19.820Z,51.84
2018-03-14T10:11:25.803Z,50.98
2018-03-14T10:12:30.549Z,50.98
2018-03-14T10:13:35.897Z,50.67
2018-03-14T10:14:42.433Z,51.31
2018-03-14T10:15:48.013Z,51.10
2018-03-14T10:16:53.228Z,51.12
2018-03-14T10:17:58.191Z,52.18
2018-03-14T10:19:03.236Z,51.08
2018-03-14T10:20:08.107Z,52.14
2018-03-14T10:21:14.037Z,51.94
2018-03-14T10:22:19.091Z,51.20
2018-03-14T10:23:24.448Z,51.55
2018-03-14T10:24:29.345Z,51.04
2018-03-14T10:25:34.305Z,51.75
2018-03-14T10:26:39.679Z,53.08
2018-03-14T10:27:44.651Z,56.64
2018-03-14T10:28:49.657Z,54.04
2018-03-14T10:29:54.391Z,53.91
2018-03-14T10:30:59.666Z,53.84
2018-03-14T10:32:04.421Z,57.16
2018-03-14T10:33:09.681Z,53.81
2018-03-14T10:34:14.879Z,53.38
2018-03-14T10:35:19.664Z,52.29
2018-03-14T10:36:24.556Z,50.83
2018-03-14T10:37:30.657Z,51.06
2018-03-14T10:38:35.507Z,52.15
2018-03-14T10:39:40.427Z,52.80
2018-03-14T10:40:45.236Z,52.83
2018-03-14T10:41:50.221Z,52.03
2018-03-14T10:42:55.207Z,52.73
2018-03-14T10:43:59.909Z,51.46
2018-03-14T10:45:06.134Z,49.88
2018-03-14T10:46:11.366Z,49.12
2018-03-14T10:47:16.540Z,50.02
2018-03-14T10:48:21.356Z,51.26
2018-03-14T10:49:27.071Z,51.15
2018-03-14T10:50:32.957Z,50.92
2018-03-14T10:51:39.026Z,49.96
2018-03-14T10:52:43.680Z,49.66
2018-03-14T10:53:48.344Z,49.69
2018-03-14T10:54:53.127Z,50.38
2018-03-14T10:55:57.966Z,50.83
2018-03-14T10:57:02.742Z,52.00
2018-03-14T10:58:07.858Z,51.46
2018-03-14T10:59:12.840Z,52.37
2018-03-14T11:00:21.986Z,52.42
2018-03-14T11:01:31.576Z,51.95
2018-03-14T11:02:41.372Z,52.60
2018-03-14T11:03:46.687Z,49.82
2018-03-14T11:04:51.575Z,48.80
2018-03-14T11:05:56.327Z,51.54
2018-03-14T11:07:01.166Z,52.96
2018-03-14T11:08:06.117Z,52.11
2018-03-14T11:09:11.129Z,51.18
2018-03-14T11:10:16.493Z,51.83
2018-03-14T11:11:21.193Z,51.32
2018-03-14T11:12:26.871Z,52.04
2018-03-14T11:13:31.918Z,51.13
2018-03-14T11:14:36.943Z,51.56
2018-03-14T11:15:42.224Z,51.28
2018-03-14T11:16:47.435Z,52.36
2018-03-14T11:17:52.457Z,50.97
2018-03-14T11:18:57.833Z,50.44
2018-03-14T11:20:02.668Z,50.68
2018-03-14T11:21:07.457Z,52.37
2018-03-14T11:22:12.470Z,52.57
2018-03-14T11:23:17.629Z,50.32
2018-03-14T11:24:22.584Z,51.21
2018-03-14T11:25:28.315Z,50.54
2018-03-14T11:26:33.719Z,50.84
2018-03-14T11:27:38.675Z,50.67
2018-03-14T11:28:43.550Z,48.67
2018-03-14T11:29:48.351Z,50.56
2018-03-14T11:30:53.371Z,49.41
2018-03-14T11:31:58.333Z,50.51
2018-03-14T11:33:03.609Z,50.07
2018-03-14T11:34:08.393Z,50.05
2018-03-14T11:35:13.298Z,48.12
2018-03-14T11:36:18.520Z,47.80
2018-03-14T11:37:23.803Z,49.82
2018-03-14T11:38:29.825Z,49.78
2018-03-14T11:39:34.864Z,49.00
2018-03-14T11:40:39.645Z,49.73
2018-03-14T11:41:44.574Z,50.74
2018-03-14T11:42:49.504Z,48.92
2018-03-14T11:43:54.563Z,48.50
2018-03-14T11:44:59.578Z,48.43
2018-03-14T11:46:05.275Z,46.98
2018-03-14T11:47:10.411Z,49.03
2018-03-14T11:48:15.714Z,48.01
2018-03-14T11:49:20.722Z,46.99
2018-03-14T11:50:26.515Z,46.63
2018-03-14T11:51:32.227Z,47.68
2018-03-14T11:52:37.695Z,48.17
2018-03-14T11:53:42.446Z,52.05
2018-03-14T11:54:47.177Z,51.91
2018-03-14T11:55:51.943Z,50.05
2018-03-14T11:56:56.814Z,49.85
2018-03-14T11:58:01.812Z,48.12
2018-03-14T11:59:06.847Z,46.43
2018-03-14T12:00:14.288Z,45.13
2018-03-14T12:01:19.150Z,45.87
2018-03-14T12:02:23.923Z,47.41
2018-03-14T12:03:29.239Z,47.94
2018-03-14T12:04:34.362Z,45.70
2018-03-14T12:05:39.061Z,45.44
2018-03-14T12:06:43.944Z,44.82
2018-03-14T12:07:48.716Z,44.01
2018-03-14T12:08:53.580Z,43.22
2018-03-14T12:09:58.215Z,43.52
2018-03-14T12:11:03.894Z,44.39
2018-03-14T12:12:08.643Z,44.83
2018-03-14T12:13:13.733Z,45.18
2018-03-14T12:14:18.587Z,45.42
2018-03-14T12:15:24.228Z,46.61
2018-03-14T12:16:29.063Z,46.47
2018-03-14T12:17:33.966Z,46.27
2018-03-14T12:18:39.846Z,46.36
2018-03-14T12:19:44.620Z,46.28
2018-03-14T12:20:49.669Z,47.34
2018-03-14T12:21:54.331Z,47.66
2018-03-14T12:22:59.216Z,46.89
2018-03-14T12:24:04.066Z,47.58
2018-03-14T12:25:08.680Z,49.06
2018-03-14T12:26:13.728Z,47.32
2018-03-14T12:27:19.398Z,46.79
2018-03-14T12:28:24.370Z,47.33
2018-03-14T12:29:29.096Z,46.54
2018-03-14T12:30:34.011Z,46.68
2018-03-14T12:31:38.842Z,47.28
2018-03-14T12:32:44.124Z,49.02
2018-03-14T12:33:49.552Z,47.25
2018-03-14T12:34:54.371Z,47.68
2018-03-14T12:35:59.329Z,48.57
2018-03-14T12:37:04.065Z,46.63
2018-03-14T12:38:08.804Z,46.98
2018-03-14T12:39:13.699Z,46.18
2018-03-14T12:40:19.380Z,47.03
2018-03-14T12:41:24.258Z,45.59
2018-03-14T12:42:28.966Z,46.83
2018-03-14T12:43:34.356Z,46.21
2018-03-14T12:44:39.257Z,45.81
2018-03-14T12:45:45.315Z,46.42
2018-03-14T12:46:50.608Z,47.52
2018-03-14T12:47:55.331Z,47.16
2018-03-14T12:49:00.112Z,49.17
2018-03-14T12:50:05.101Z,47.69
2018-03-14T12:51:09.748Z,47.35
2018-03-14T12:52:14.811Z,45.63
2018-03-14T12:53:20.288Z,47.26
2018-03-14T12:54:25.072Z,47.98
2018-03-14T12:55:30.932Z,47.00
2018-03-14T12:56:36.713Z,47.38
2018-03-14T12:57:41.379Z,46.99
2018-03-14T12:58:46.651Z,47.33
2018-03-14T12:59:51.323Z,47.52
2018-03-14T13:00:56.620Z,47.99
2018-03-14T13:02:01.418Z,49.47
2018-03-14T13:03:06.014Z,49.43
2018-03-14T13:04:10.713Z,49.13
2018-03-14T13:05:15.603Z,49.43
2018-03-14T13:06:20.927Z,49.42
2018-03-14T13:07:25.831Z,48.78
2018-03-14T13:08:30.480Z,49.08
2018-03-14T13:09:36.332Z,47.69
2018-03-14T13:10:42.449Z,47.35
2018-03-14T13:11:48.161Z,48.60
2018-03-14T13:12:52.817Z,48.69
2018-03-14T13:13:57.585Z,48.86
2018-03-14T13:15:03.796Z,49.04
2018-03-14T13:16:09.229Z,49.82
2018-03-14T13:17:14.022Z,49.61
2018-03-14T13:18:19.480Z,50.71
2018-03-14T13:19:24.269Z,49.18
2018-03-14T13:20:29.093Z,48.72
2018-03-14T13:21:34.782Z,48.45
2018-03-14T13:22:39.486Z,48.35
2018-03-14T13:23:44.403Z,49.68
2018-03-14T13:24:50.653Z,50.10
2018-03-14T13:25:55.390Z,50.35
2018-03-14T13:27:00.170Z,49.13
2018-03-14T13:28:04.938Z,49.05
2018-03-14T13:29:09.689Z,48.08
2018-03-14T13:30:18.367Z,48.82
2018-03-14T13:31:24.324Z,49.60
2018-03-14T13:32:29.031Z,49.16
2018-03-14T13:33:34.152Z,47.08
2018-03-14T13:34:38.886Z,46.87
2018-03-14T13:35:44.350Z,44.93
2018-03-14T13:36:49.127Z,43.90
2018-03-14T13:37:53.866Z,43.38
2018-03-14T13:38:58.473Z,44.30
2018-03-14T13:40:03.285Z,44.39
2018-03-14T13:41:08.027Z,43.78
2018-03-14T13:42:12.795Z,43.15
2018-03-14T13:43:17.861Z,42.44
2018-03-14T13:44:22.845Z,42.73
2018-03-14T13:45:28.463Z,43.54
2018-03-14T13:46:33.134Z,43.11
2018-03-14T13:47:37.894Z,45.22
2018-03-14T13:48:42.513Z,44.50
2018-03-14T13:49:48.041Z,43.36
2018-03-14T13:50:52.753Z,44.45
2018-03-14T13:51:57.555Z,43.70
2018-03-14T13:53:02.357Z,42.17
2018-03-14T13:54:07.097Z,42.01
2018-03-14T13:55:11.743Z,42.36
2018-03-14T13:56:16.728Z,43.93
2018-03-14T13:57:21.565Z,41.60
2018-03-14T13:58:26.428Z,42.03
2018-03-14T13:59:31.310Z,43.08
2018-03-14T14:00:36.266Z,41.54
2018-03-14T14:01:42.601Z,40.79
2018-03-14T14:02:47.911Z,39.91
2018-03-14T14:03:52.602Z,39.87
2018-03-14T14:04:57.334Z,40.96
2018-03-14T14:06:02.143Z,42.50
2018-03-14T14:07:06.945Z,42.51